createdAt,value
2023-05-13T00:00:09.349Z,99063.66
2023-05-13T00:03:33.378Z,99059.75
2023-05-13T00:06:38.718Z,99063.06
2023-05-13T00:09:42.798Z,99058.50
2023-05-13T00:12:46.187Z,99061.19
2023-05-13T00:15:50.028Z,99065.53
2023-05-13T00:18:53.710Z,99066.34
2023-05-13T00:21:59.205Z,99069.28
2023-05-13T00:25:02.743Z,99063.91
2023-05-13T00:28:06.694Z,99068.44
2023-05-13T00:31:11.350Z,99065.97
2023-05-13T00:34:15.049Z,99067.19
2023-05-13T00:37:20.042Z,99066.78
2023-05-13T00:40:25.869Z,99073.38
2023-05-13T00:43:30.185Z,99070.31
2023-05-13T00:46:34.948Z,99074.63
2023-05-13T00:49:38.965Z,99072.34
2023-05-13T00:52:44.990Z,99074.63
2023-05-13T00:55:48.675Z,99072.13
2023-05-13T00:58:52.855Z,99077.91
2023-05-13T01:02:08.406Z,99080.81
2023-05-13T01:05:27.933Z,99086.59
2023-05-13T01:08:45.133Z,99083.28
2023-05-13T01:11:56.046Z,99085.75
2023-05-13T01:15:08.236Z,99094.63
2023-05-13T01:18:16.720Z,99097.13
2023-05-13T01:21:27.413Z,99094.81
2023-05-13T01:24:31.681Z,99107.66
2023-05-13T01:27:35.378Z,99102.03
2023-05-13T01:30:40.553Z,99098.50
2023-05-13T01:33:45.736Z,99107.53
2023-05-13T01:36:51.383Z,99106.91
2023-05-13T01:39:57.280Z,99109.13
2023-05-13T01:43:01.100Z,99118.41
2023-05-13T01:46:04.731Z,99114.78
2023-05-13T01:49:10.235Z,99119.44
2023-05-13T01:52:15.150Z,99127.28
2023-05-13T01:55:19.031Z,99122.28
2023-05-13T01:58:24.712Z,99125.38
2023-05-13T02:01:28.473Z,99124.72
2023-05-13T02:04:32.177Z,99110.47
2023-05-13T02:07:37.648Z,99113.16
2023-05-13T02:10:41.242Z,99105.94
2023-05-13T02:13:45.124Z,99110.66
2023-05-13T02:16:48.786Z,99107.56
2023-05-13T02:19:52.811Z,99107.94
2023-05-13T02:22:57.685Z,99109.16
2023-05-13T02:26:01.605Z,99102.50
2023-05-13T02:29:05.112Z,99097.94
2023-05-13T02:32:09.471Z,99100.81
2023-05-13T02:35:13.015Z,99096.66
2023-05-13T02:38:18.250Z,99096.00
2023-05-13T02:41:21.741Z,99091.66
2023-05-13T02:44:26.248Z,99090.00
2023-05-13T02:47:29.861Z,99087.91
2023-05-13T02:50:39.475Z,99090.16
2023-05-13T02:53:44.575Z,99086.81
2023-05-13T02:56:48.673Z,99097.19
2023-05-13T02:59:52.124Z,99097.81
2023-05-13T03:02:56.342Z,99105.88
2023-05-13T03:05:59.926Z,99108.19
2023-05-13T03:09:05.293Z,99114.38
2023-05-13T03:12:10.195Z,99109.41
2023-05-13T03:15:15.681Z,99126.53
2023-05-13T03:18:20.145Z,99120.78
2023-05-13T03:21:24.130Z,99121.81
2023-05-13T03:24:29.278Z,99118.47
2023-05-13T03:27:33.459Z,99118.47
2023-05-13T03:30:37.633Z,99123.66
2023-05-13T03:33:47.512Z,99130.41
2023-05-13T03:36:51.133Z,99127.47
2023-05-13T03:39:56.486Z,99132.41
2023-05-13T03:43:00.576Z,99134.66
2023-05-13T03:46:09.017Z,99137.34
2023-05-13T03:49:14.286Z,99137.59
2023-05-13T03:52:23.399Z,99137.38
2023-05-13T03:55:36.589Z,99142.00
2023-05-13T03:58:47.308Z,99145.69
2023-05-13T04:01:56.309Z,99152.78
2023-05-13T04:05:07.301Z,99147.03
2023-05-13T04:08:14.453Z,99158.28
2023-05-13T04:11:24.199Z,99158.91
2023-05-13T04:14:28.091Z,99157.13
2023-05-13T04:17:31.953Z,99165.41
2023-05-13T04:20:35.974Z,99160.94
2023-05-13T04:23:39.848Z,99164.91
2023-05-13T04:26:44.912Z,99176.50
2023-05-13T04:29:48.881Z,99172.03
2023-05-13T04:32:52.571Z,99171.06
2023-05-13T04:35:56.967Z,99171.72
2023-05-13T04:39:00.618Z,99171.97
2023-05-13T04:42:06.335Z,99176.16
2023-05-13T04:45:10.989Z,99176.25
2023-05-13T04:48:14.872Z,99176.94
2023-05-13T04:51:18.373Z,99180.34
2023-05-13T04:54:22.674Z,99181.06
2023-05-13T04:57:27.636Z,99181.75
2023-05-13T05:00:31.481Z,99179.50
2023-05-13T05:03:35.661Z,99186.16
2023-05-13T05:06:39.535Z,99188.22
2023-05-13T05:09:43.634Z,99181.78
2023-05-13T05:12:49.341Z,99193.16
2023-05-13T05:15:52.915Z,99193.75
2023-05-13T05:18:56.723Z,99197.19
2023-05-13T05:22:00.343Z,99197.59
2023-05-13T05:25:04.618Z,99196.72
2023-05-13T05:28:09.945Z,99209.06
2023-05-13T05:31:17.401Z,99202.06
2023-05-13T05:34:21.190Z,99203.56
2023-05-13T05:37:25.950Z,99208.09
2023-05-13T05:40:29.581Z,99203.91
2023-05-13T05:43:34.641Z,99211.06
2023-05-13T05:46:39.116Z,99216.69
2023-05-13T05:49:44.541Z,99225.69
2023-05-13T05:52:48.401Z,99227.03
2023-05-13T05:55:53.305Z,99225.81
2023-05-13T05:58:59.056Z,99224.94
2023-05-13T06:02:04.495Z,99229.06
2023-05-13T06:05:09.855Z,99234.09
2023-05-13T06:08:15.829Z,99230.16
2023-05-13T06:11:19.447Z,99238.28
2023-05-13T06:14:24.578Z,99235.38
2023-05-13T06:17:28.136Z,99235.31
2023-05-13T06:20:31.791Z,99226.28
2023-05-13T06:23:35.405Z,99227.69
2023-05-13T06:26:39.131Z,99228.00
2023-05-13T06:29:44.019Z,99234.75
2023-05-13T06:33:00.253Z,99230.72
2023-05-13T06:36:05.587Z,99229.16
2023-05-13T06:39:09.789Z,99241.94
2023-05-13T06:42:14.720Z,99224.69
2023-05-13T06:45:25.982Z,99234.31
2023-05-13T06:48:29.928Z,99234.13
2023-05-13T06:51:34.893Z,99233.34
2023-05-13T06:54:38.662Z,99233.84
2023-05-13T06:57:45.173Z,99240.84
2023-05-13T07:00:50.511Z,99234.69
2023-05-13T07:03:54.444Z,99238.25
2023-05-13T07:06:58.254Z,99238.25
2023-05-13T07:10:01.934Z,99235.22
2023-05-13T07:13:06.345Z,99228.84
2023-05-13T07:16:11.356Z,99229.59
2023-05-13T07:19:14.887Z,99223.72
2023-05-13T07:22:18.545Z,99230.56
2023-05-13T07:25:22.917Z,99230.13
2023-05-13T07:28:26.673Z,99222.09
2023-05-13T07:31:32.234Z,99223.53
2023-05-13T07:34:35.906Z,99217.38
2023-05-13T07:37:40.325Z,99223.41
2023-05-13T07:40:43.980Z,99224.72
2023-05-13T07:43:47.704Z,99235.44
2023-05-13T07:46:53.562Z,99220.69
2023-05-13T07:49:57.294Z,99224.47
2023-05-13T07:53:01.132Z,99219.84
2023-05-13T07:56:05.049Z,99225.50
2023-05-13T07:59:08.645Z,99223.59
2023-05-13T08:02:13.882Z,99211.53
2023-05-13T08:05:17.648Z,99212.41
2023-05-13T08:08:21.268Z,99210.25
2023-05-13T08:11:25.462Z,99192.50
2023-05-13T08:14:29.475Z,99209.31
2023-05-13T08:17:34.817Z,99202.44
2023-05-13T08:20:38.470Z,99208.28
2023-05-13T08:23:46.041Z,99218.78
2023-05-13T08:26:49.811Z,99205.09
2023-05-13T08:29:53.831Z,99205.81
2023-05-13T08:32:58.892Z,99219.09
2023-05-13T08:36:02.689Z,99220.25
2023-05-13T08:39:07.887Z,99220.91
2023-05-13T08:42:13.204Z,99220.59
2023-05-13T08:45:20.601Z,99220.78
2023-05-13T08:48:26.830Z,99223.81
2023-05-13T08:51:30.649Z,99222.44
2023-05-13T08:54:36.144Z,99225.63
2023-05-13T08:57:40.315Z,99222.81
2023-05-13T09:00:44.746Z,99223.41
2023-05-13T09:03:58.957Z,99216.56
2023-05-13T09:07:03.084Z,99221.34
2023-05-13T09:10:08.589Z,99216.22
2023-05-13T09:13:14.400Z,99225.50
2023-05-13T09:16:18.304Z,99225.94
2023-05-13T09:19:26.099Z,99219.75
2023-05-13T09:22:30.003Z,99217.22
2023-05-13T09:25:34.538Z,99211.63
2023-05-13T09:28:38.255Z,99207.75
2023-05-13T09:31:41.978Z,99211.78
2023-05-13T09:34:49.480Z,99205.47
2023-05-13T09:37:53.325Z,99219.59
2023-05-13T09:40:59.053Z,99219.16
2023-05-13T09:44:05.115Z,99212.72
2023-05-13T09:47:12.203Z,99208.06
2023-05-13T09:50:17.394Z,99205.31
2023-05-13T09:53:21.731Z,99208.19
2023-05-13T09:56:25.939Z,99200.13
2023-05-13T09:59:30.056Z,99200.72
2023-05-13T10:02:35.414Z,99185.75
2023-05-13T10:05:40.830Z,99188.16
2023-05-13T10:08:47.802Z,99185.72
2023-05-13T10:11:51.265Z,99191.22
2023-05-13T10:14:57.029Z,99196.19
2023-05-13T10:18:01.756Z,99176.00
2023-05-13T10:21:07.715Z,99185.09
2023-05-13T10:24:12.005Z,99179.63
2023-05-13T10:27:16.970Z,99178.28
2023-05-13T10:30:26.208Z,99171.72
2023-05-13T10:33:30.111Z,99180.75
2023-05-13T10:36:59.019Z,99181.84
2023-05-13T10:40:44.208Z,99168.44
2023-05-13T10:43:47.948Z,99177.47
2023-05-13T10:46:52.107Z,99170.91
2023-05-13T10:49:56.292Z,99180.25
2023-05-13T10:53:01.930Z,99171.78
2023-05-13T10:56:07.934Z,99175.03
2023-05-13T10:59:13.965Z,99174.44
2023-05-13T11:02:23.452Z,99165.03
2023-05-13T11:05:27.704Z,99176.28
2023-05-13T11:08:44.644Z,99178.94
2023-05-13T11:11:50.589Z,99171.53
2023-05-13T11:14:57.609Z,99176.31
2023-05-13T11:18:01.551Z,99173.72
2023-05-13T11:21:07.147Z,99164.13
2023-05-13T11:24:18.967Z,99174.84
2023-05-13T11:27:22.934Z,99171.78
2023-05-13T11:30:28.562Z,99175.78
2023-05-13T11:34:13.878Z,99175.00
2023-05-13T11:37:18.404Z,99166.34
2023-05-13T11:40:27.820Z,99164.72
2023-05-13T11:43:34.691Z,99182.78
2023-05-13T11:46:38.713Z,99183.47
2023-05-13T11:49:44.781Z,99179.31
2023-05-13T11:52:53.618Z,99178.69
2023-05-13T11:56:11.213Z,99172.38
2023-05-13T11:59:15.681Z,99168.59
2023-05-13T12:02:23.229Z,99173.22
2023-05-13T12:05:27.726Z,99160.84
2023-05-13T12:08:31.824Z,99157.97
2023-05-13T12:11:37.441Z,99161.03
2023-05-13T12:14:42.261Z,99169.09
2023-05-13T12:17:47.293Z,99162.19
2023-05-13T12:20:51.549Z,99165.75
2023-05-13T12:23:54.958Z,99176.16
2023-05-13T12:27:08.670Z,99164.09
2023-05-13T12:30:16.639Z,99169.84
2023-05-13T12:33:22.785Z,99169.56
2023-05-13T12:36:33.852Z,99172.09
2023-05-13T12:39:38.049Z,99173.59
2023-05-13T12:42:45.971Z,99163.25
2023-05-13T12:45:55.678Z,99163.75
2023-05-13T12:49:01.961Z,99167.00
2023-05-13T12:52:06.031Z,99171.63
2023-05-13T12:55:12.320Z,99165.72
2023-05-13T12:58:17.512Z,99175.50
2023-05-13T13:01:22.113Z,99164.03
2023-05-13T13:04:26.011Z,99163.59
2023-05-13T13:07:29.915Z,99160.97
2023-05-13T13:10:33.640Z,99155.72
2023-05-13T13:13:39.460Z,99152.75
2023-05-13T13:16:43.342Z,99157.31
2023-05-13T13:19:46.706Z,99158.28
2023-05-13T13:22:50.395Z,99154.06
2023-05-13T13:25:53.857Z,99159.91
2023-05-13T13:28:59.211Z,99157.53
2023-05-13T13:32:02.895Z,99161.41
2023-05-13T13:35:07.726Z,99155.44
2023-05-13T13:38:11.333Z,99156.34
2023-05-13T13:41:14.961Z,99162.69
2023-05-13T13:44:19.776Z,99152.97
2023-05-13T13:47:23.586Z,99161.44
2023-05-13T13:50:27.413Z,99157.78
2023-05-13T13:53:31.074Z,99160.47
2023-05-13T13:56:36.267Z,99154.69
2023-05-13T13:59:41.671Z,99165.47
2023-05-13T14:02:45.671Z,99160.19
2023-05-13T14:05:50.147Z,99160.16
2023-05-13T14:08:54.641Z,99168.09
2023-05-13T14:11:58.429Z,99164.44
2023-05-13T14:15:03.282Z,99155.84
2023-05-13T14:18:07.992Z,99160.97
2023-05-13T14:21:11.445Z,99154.91
2023-05-13T14:24:15.963Z,99169.63
2023-05-13T14:27:19.493Z,99172.72
2023-05-13T14:30:25.213Z,99167.28
2023-05-13T14:33:28.625Z,99167.91
2023-05-13T14:36:32.767Z,99172.41
2023-05-13T14:39:36.384Z,99158.34
2023-05-13T14:42:40.646Z,99155.88
2023-05-13T14:45:45.960Z,99160.84
2023-05-13T14:48:49.898Z,99156.31
2023-05-13T14:51:53.313Z,99161.22
2023-05-13T14:54:57.225Z,99157.41
2023-05-13T14:58:01.259Z,99146.31
2023-05-13T15:01:06.633Z,99149.88
2023-05-13T15:04:10.442Z,99151.69
2023-05-13T15:07:14.473Z,99161.78
2023-05-13T15:10:18.258Z,99157.03
2023-05-13T15:13:22.144Z,99163.13
2023-05-13T15:16:27.053Z,99166.00
2023-05-13T15:19:30.726Z,99158.78
2023-05-13T15:22:34.445Z,99158.09
2023-05-13T15:25:38.354Z,99156.16
2023-05-13T15:28:42.083Z,99145.88
2023-05-13T15:31:50.586Z,99148.59
2023-05-13T15:34:54.173Z,99152.53
2023-05-13T15:37:58.460Z,99160.34
2023-05-13T15:41:04.056Z,99154.59
2023-05-13T15:44:08.274Z,99159.09
2023-05-13T15:47:13.284Z,99154.50
2023-05-13T15:50:18.799Z,99150.34
2023-05-13T15:53:22.221Z,99147.22
2023-05-13T15:56:26.055Z,99141.41
2023-05-13T15:59:29.427Z,99144.44
2023-05-13T16:02:39.022Z,99144.53
2023-05-13T16:05:42.469Z,99126.78
2023-05-13T16:08:46.191Z,99129.00
2023-05-13T16:11:49.814Z,99134.44
2023-05-13T16:14:53.552Z,99130.84
2023-05-13T16:17:58.394Z,99128.59
2023-05-13T16:21:02.270Z,99137.34
2023-05-13T16:24:07.044Z,99139.06
2023-05-13T16:27:10.772Z,99132.44
2023-05-13T16:30:14.718Z,99142.03
2023-05-13T16:33:19.838Z,99127.47
2023-05-13T16:36:23.891Z,99133.22
2023-05-13T16:39:27.610Z,99127.38
2023-05-13T16:42:31.223Z,99129.28
2023-05-13T16:45:34.945Z,99128.34
2023-05-13T16:48:39.773Z,99127.91
2023-05-13T16:51:43.417Z,99127.81
2023-05-13T16:54:46.845Z,99130.06
2023-05-13T16:57:50.930Z,99134.72
2023-05-13T17:00:55.134Z,99129.94
2023-05-13T17:04:01.748Z,99132.97
2023-05-13T17:07:05.215Z,99128.28
2023-05-13T17:10:10.134Z,99128.22
2023-05-13T17:13:13.765Z,99131.16
2023-05-13T17:16:17.577Z,99134.88
2023-05-13T17:19:22.421Z,99130.88
2023-05-13T17:22:26.290Z,99142.78
2023-05-13T17:25:29.756Z,99133.50
2023-05-13T17:28:33.984Z,99139.31
2023-05-13T17:31:37.671Z,99125.69
2023-05-13T17:34:43.022Z,99122.94
2023-05-13T17:37:46.424Z,99121.13
2023-05-13T17:40:51.433Z,99124.28
2023-05-13T17:43:55.109Z,99127.41
2023-05-13T17:46:58.908Z,99131.47
2023-05-13T17:50:04.104Z,99125.75
2023-05-13T17:53:07.957Z,99131.91
2023-05-13T17:56:11.460Z,99126.03
2023-05-13T17:59:15.096Z,99119.00
2023-05-13T18:02:18.506Z,99125.84
2023-05-13T18:05:23.984Z,99116.59
2023-05-13T18:08:27.530Z,99116.91
2023-05-13T18:11:31.684Z,99118.25
2023-05-13T18:14:35.286Z,99119.88
2023-05-13T18:17:38.987Z,99119.06
2023-05-13T18:20:43.786Z,99130.22
2023-05-13T18:23:47.419Z,99132.63
2023-05-13T18:26:51.003Z,99134.47
2023-05-13T18:29:54.774Z,99143.31
2023-05-13T18:32:58.201Z,99146.50
2023-05-13T18:36:03.598Z,99148.16
2023-05-13T18:39:08.232Z,99162.88
2023-05-13T18:42:11.971Z,99162.31
2023-05-13T18:45:15.871Z,99167.09
2023-05-13T18:48:19.658Z,99163.41
2023-05-13T18:51:24.486Z,99166.25
2023-05-13T18:54:29.266Z,99160.72
2023-05-13T18:57:32.847Z,99164.41
2023-05-13T19:00:37.432Z,99170.28
2023-05-13T19:03:40.885Z,99171.56
2023-05-13T19:06:46.279Z,99177.19
2023-05-13T19:09:49.891Z,99172.59
2023-05-13T19:12:53.635Z,99177.72
2023-05-13T19:15:57.611Z,99175.59
2023-05-13T19:19:01.332Z,99168.47
2023-05-13T19:22:06.510Z,99167.63
2023-05-13T19:25:10.952Z,99173.00
2023-05-13T19:28:14.746Z,99183.16
2023-05-13T19:31:18.522Z,99173.09
2023-05-13T19:34:21.996Z,99174.19
2023-05-13T19:37:27.507Z,99183.47
2023-05-13T19:40:30.976Z,99191.66
2023-05-13T19:43:34.797Z,99188.88
2023-05-13T19:46:38.356Z,99190.22
2023-05-13T19:49:42.186Z,99185.69
2023-05-13T19:52:46.978Z,99186.38
2023-05-13T19:55:50.737Z,99194.56
2023-05-13T19:58:54.217Z,99194.84
2023-05-13T20:01:58.010Z,99197.38
2023-05-13T20:05:01.421Z,99195.13
2023-05-13T20:08:06.637Z,99191.66
2023-05-13T20:11:10.024Z,99197.94
2023-05-13T20:14:13.776Z,99188.69
2023-05-13T20:17:21.218Z,99193.75
2023-05-13T20:20:25.058Z,99185.69
2023-05-13T20:23:29.999Z,99184.91
2023-05-13T20:26:34.730Z,99176.84
2023-05-13T20:29:39.673Z,99176.91
2023-05-13T20:32:43.390Z,99181.47
2023-05-13T20:35:47.400Z,99172.38
2023-05-13T20:38:52.436Z,99175.72
2023-05-13T20:41:56.562Z,99177.00
2023-05-13T20:45:00.466Z,99170.16
2023-05-13T20:48:03.911Z,99167.06
2023-05-13T20:51:07.836Z,99174.78
2023-05-13T20:54:13.345Z,99174.97
2023-05-13T20:57:17.136Z,99168.38
2023-05-13T21:00:21.471Z,99169.84
2023-05-13T21:03:25.629Z,99169.44
2023-05-13T21:06:29.542Z,99168.00
2023-05-13T21:09:35.018Z,99166.78
2023-05-13T21:12:38.893Z,99169.09
2023-05-13T21:15:42.544Z,99171.38
2023-05-13T21:18:46.022Z,99167.69
2023-05-13T21:21:50.091Z,99169.56
2023-05-13T21:24:54.903Z,99171.66
2023-05-13T21:27:58.626Z,99176.06
2023-05-13T21:31:02.284Z,99170.66
2023-05-13T21:34:06.197Z,99159.28
2023-05-13T21:37:09.546Z,99177.75
2023-05-13T21:40:15.270Z,99174.88
2023-05-13T21:43:18.688Z,99178.00
2023-05-13T21:46:22.324Z,99169.28
2023-05-13T21:49:25.758Z,99168.25
2023-05-13T21:52:29.505Z,99168.72
2023-05-13T21:55:35.088Z,99159.56
2023-05-13T21:58:38.921Z,99168.13
2023-05-13T22:01:46.797Z,99162.31
2023-05-13T22:04:52.374Z,99163.34
2023-05-13T22:07:55.764Z,99161.09
2023-05-13T22:11:01.292Z,99153.38
2023-05-13T22:14:05.103Z,99163.34
2023-05-13T22:17:10.325Z,99168.94
2023-05-13T22:20:14.460Z,99160.84
2023-05-13T22:23:18.389Z,99153.78
2023-05-13T22:26:23.206Z,99156.28
2023-05-13T22:29:27.079Z,99153.59
2023-05-13T22:32:30.450Z,99155.44
2023-05-13T22:35:36.486Z,99156.28
2023-05-13T22:38:40.656Z,99163.75
2023-05-13T22:41:45.813Z,99155.47
2023-05-13T22:44:49.218Z,99150.91
2023-05-13T22:47:53.120Z,99149.66
2023-05-13T22:50:58.398Z,99148.63
2023-05-13T22:54:02.338Z,99153.81
2023-05-13T22:57:07.235Z,99159.00
2023-05-13T23:00:12.978Z,99148.41
2023-05-13T23:03:16.393Z,99149.25
2023-05-13T23:06:20.221Z,99139.50
2023-05-13T23:09:23.625Z,99137.66
2023-05-13T23:12:28.768Z,99131.00
2023-05-13T23:15:32.185Z,99135.78
2023-05-13T23:18:35.875Z,99126.03
2023-05-13T23:21:39.299Z,99128.28
2023-05-13T23:24:43.036Z,99131.63
2023-05-13T23:27:48.055Z,99122.91
2023-05-13T23:30:55.026Z,99123.97
2023-05-13T23:33:58.608Z,99121.25
2023-05-13T23:37:02.596Z,99128.06
2023-05-13T23:40:08.046Z,99116.84
2023-05-13T23:43:13.209Z,99119.72
2023-05-13T23:46:16.723Z,99118.25
2023-05-13T23:49:22.563Z,99113.06
2023-05-13T23:52:25.998Z,99107.69
2023-05-13T23:55:29.891Z,99105.00
2023-05-13T23:58:34.837Z,99102.94
